createdAt,value
2022-08-07T00:00:26.337Z,20.62
2022-08-07T00:03:05.673Z,20.58
2022-08-07T00:05:37.079Z,20.55
2022-08-07T00:08:05.325Z,20.51
2022-08-07T00:10:35.754Z,20.44
2022-08-07T00:13:23.749Z,20.39
2022-08-07T00:15:53.209Z,20.37
2022-08-07T00:18:24.383Z,20.30
2022-08-07T00:20:54.405Z,20.24
2022-08-07T00:23:21.706Z,20.25
2022-08-07T00:25:58.929Z,20.28
2022-08-07T00:28:33.199Z,20.25
2022-08-07T00:31:12.627Z,20.20
2022-08-07T00:33:43.485Z,20.15
2022-08-07T00:36:14.731Z,20.11
2022-08-07T00:38:44.909Z,20.02
2022-08-07T00:41:14.782Z,20.02
2022-08-07T00:44:01.685Z,19.98
2022-08-07T00:46:31.068Z,19.97
2022-08-07T00:49:03.542Z,19.99
2022-08-07T00:51:57.348Z,19.99
2022-08-07T00:54:19.683Z,19.97
2022-08-07T00:56:49.966Z,19.92
2022-08-07T00:59:35.394Z,19.86
2022-08-07T01:02:08.965Z,19.80
2022-08-07T01:04:58.387Z,19.73
2022-08-07T01:07:29.226Z,19.70
2022-08-07T01:10:06.642Z,19.69
2022-08-07T01:12:53.440Z,19.66
2022-08-07T01:15:35.745Z,19.62
2022-08-07T01:18:11.284Z,19.60
2022-08-07T01:21:26.072Z,19.66
2022-08-07T01:23:57.608Z,19.73
2022-08-07T01:26:26.291Z,19.76
2022-08-07T01:28:55.109Z,19.70
2022-08-07T01:31:42.370Z,19.64
2022-08-07T01:34:13.975Z,19.60
2022-08-07T01:36:44.179Z,19.64
2022-08-07T01:39:16.466Z,19.64
2022-08-07T01:42:07.359Z,19.59
2022-08-07T01:44:36.963Z,19.64
2022-08-07T01:48:16.975Z,19.69
2022-08-07T01:49:53.649Z,19.68
2022-08-07T01:52:26.595Z,19.65
2022-08-07T01:54:56.082Z,19.60
2022-08-07T01:57:33.771Z,19.59
2022-08-07T02:00:20.617Z,19.59
2022-08-07T02:03:12.366Z,19.58
2022-08-07T02:06:08.834Z,19.59
2022-08-07T02:08:54.342Z,19.53
2022-08-07T02:11:31.129Z,19.53
2022-08-07T02:14:36.348Z,19.57
2022-08-07T02:17:04.149Z,19.60
2022-08-07T02:20:04.966Z,19.59
2022-08-07T02:22:25.896Z,19.53
2022-08-07T02:24:55.750Z,19.47
2022-08-07T02:27:24.669Z,19.43
2022-08-07T02:29:55.084Z,19.41
2022-08-07T02:32:29.953Z,19.37
2022-08-07T02:35:01.016Z,19.35
2022-08-07T02:37:35.889Z,19.32
2022-08-07T02:40:11.914Z,19.31
2022-08-07T02:42:57.502Z,19.29
2022-08-07T02:45:58.082Z,19.26
2022-08-07T02:48:17.276Z,19.27
2022-08-07T02:50:50.503Z,19.28
2022-08-07T02:53:33.945Z,19.25
2022-08-07T02:56:20.973Z,19.21
2022-08-07T02:58:55.201Z,19.15
2022-08-07T03:01:35.291Z,19.13
2022-08-07T03:04:12.522Z,19.08
2022-08-07T03:06:44.722Z,19.01
2022-08-07T03:09:14.159Z,18.99
2022-08-07T03:11:52.287Z,18.95
2022-08-07T03:14:28.237Z,18.99
2022-08-07T03:16:56.733Z,19.00
2022-08-07T03:19:24.886Z,18.99
2022-08-07T03:21:56.952Z,19.03
2022-08-07T03:24:28.071Z,19.12
2022-08-07T03:27:02.126Z,19.15
2022-08-07T03:29:46.056Z,19.18
2022-08-07T03:32:35.660Z,19.15
2022-08-07T03:35:17.854Z,19.08
2022-08-07T03:37:55.173Z,19.12
2022-08-07T03:40:31.179Z,19.15
2022-08-07T03:43:10.022Z,19.10
2022-08-07T03:45:47.836Z,19.13
2022-08-07T03:48:19.578Z,19.13
2022-08-07T03:50:56.169Z,19.17
2022-08-07T03:53:30.246Z,19.18
2022-08-07T03:56:33.041Z,19.14
2022-08-07T03:59:13.104Z,19.05
2022-08-07T04:01:46.694Z,19.09
2022-08-07T04:04:17.848Z,19.15
2022-08-07T04:06:50.932Z,19.24
2022-08-07T04:09:23.456Z,19.29
2022-08-07T04:12:23.946Z,19.30
2022-08-07T04:14:46.110Z,19.34
2022-08-07T04:18:56.930Z,19.40
2022-08-07T04:20:09.712Z,19.47
2022-08-07T04:22:37.788Z,19.49
2022-08-07T04:25:11.776Z,19.50
2022-08-07T04:27:44.179Z,19.53
2022-08-07T04:30:21.021Z,19.58
2022-08-07T04:33:09.342Z,19.65
2022-08-07T04:35:39.291Z,19.72
2022-08-07T04:38:11.451Z,19.75
2022-08-07T04:40:52.089Z,19.74
2022-08-07T04:44:10.111Z,19.71
2022-08-07T04:46:51.345Z,19.67
2022-08-07T04:49:30.297Z,19.70
2022-08-07T04:52:19.354Z,19.76
2022-08-07T04:54:52.863Z,19.85
2022-08-07T04:58:13.161Z,19.97
2022-08-07T05:00:38.469Z,20.11
2022-08-07T05:04:07.272Z,20.25
2022-08-07T05:06:20.274Z,20.37
2022-08-07T05:09:10.346Z,20.47
2022-08-07T05:11:57.086Z,20.55
2022-08-07T05:14:55.449Z,20.60
2022-08-07T05:17:50.293Z,20.68
2022-08-07T05:20:24.685Z,20.76
2022-08-07T05:22:59.825Z,20.87
2022-08-07T05:26:11.142Z,20.89
2022-08-07T05:28:22.737Z,20.97
2022-08-07T05:30:55.001Z,21.08
2022-08-07T05:33:26.856Z,21.15
2022-08-07T05:35:56.546Z,21.20
2022-08-07T05:38:58.406Z,21.27
2022-08-07T05:41:16.783Z,21.33
2022-08-07T05:44:11.755Z,21.37
2022-08-07T05:46:38.008Z,21.45
2022-08-07T05:49:11.847Z,21.55
2022-08-07T05:51:46.285Z,21.73
2022-08-07T05:54:31.007Z,21.81
2022-08-07T05:57:00.622Z,21.84
2022-08-07T05:59:47.243Z,21.91
2022-08-07T06:02:28.432Z,22.03
2022-08-07T06:05:03.544Z,22.19
2022-08-07T06:08:30.436Z,22.36
2022-08-07T06:10:22.564Z,22.56
2022-08-07T06:12:50.218Z,22.65
2022-08-07T06:15:19.952Z,22.74
2022-08-07T06:17:53.829Z,22.87
2022-08-07T06:20:32.066Z,22.97
2022-08-07T06:23:46.161Z,23.18
2022-08-07T06:26:00.453Z,23.34
2022-08-07T06:28:28.598Z,23.84
2022-08-07T06:30:58.280Z,24.22
2022-08-07T06:33:27.218Z,24.60
2022-08-07T06:36:11.843Z,24.94
2022-08-07T06:38:59.516Z,25.22
2022-08-07T06:42:03.572Z,25.40
2022-08-07T06:45:06.752Z,25.55
2022-08-07T06:47:48.228Z,25.50
2022-08-07T06:50:30.465Z,25.95
2022-08-07T06:53:00.345Z,26.27
2022-08-07T06:55:47.919Z,26.39
2022-08-07T06:58:27.393Z,26.71
2022-08-07T07:01:06.775Z,26.97
2022-08-07T07:03:47.449Z,27.20
2022-08-07T07:06:23.898Z,27.79
2022-08-07T07:08:53.168Z,27.82
2022-08-07T07:12:09.622Z,27.98
2022-08-07T07:14:09.923Z,28.31
2022-08-07T07:16:50.780Z,28.55
2022-08-07T07:19:55.362Z,28.70
2022-08-07T07:22:36.262Z,28.17
2022-08-07T07:26:31.400Z,28.08
2022-08-07T07:28:29.829Z,28.02
2022-08-07T07:31:07.136Z,28.00
2022-08-07T07:33:35.826Z,28.38
2022-08-07T07:36:13.413Z,28.89
2022-08-07T07:38:46.172Z,28.96
2022-08-07T07:41:16.054Z,28.73
2022-08-07T07:44:14.262Z,28.45
2022-08-07T07:46:53.941Z,28.36
2022-08-07T07:50:34.368Z,28.43
2022-08-07T07:52:15.818Z,28.28
2022-08-07T07:54:51.500Z,28.25
2022-08-07T07:57:53.439Z,28.03
2022-08-07T08:00:14.979Z,27.78
2022-08-07T08:03:05.392Z,27.77
2022-08-07T08:05:54.207Z,27.71
2022-08-07T08:08:35.112Z,27.34
2022-08-07T08:11:05.953Z,27.47
2022-08-07T08:13:53.156Z,27.57
2022-08-07T08:16:39.260Z,27.60
2022-08-07T08:20:16.366Z,27.40
2022-08-07T08:22:18.902Z,27.40
2022-08-07T08:25:18.718Z,27.53
2022-08-07T08:28:01.711Z,27.60
2022-08-07T08:30:35.062Z,27.56
2022-08-07T08:33:18.476Z,27.53
2022-08-07T08:35:50.930Z,27.63
2022-08-07T08:38:25.901Z,27.73
2022-08-07T08:41:15.977Z,27.74
2022-08-07T08:44:15.293Z,27.59
2022-08-07T08:47:12.544Z,27.53
2022-08-07T08:50:02.453Z,27.69
2022-08-07T08:52:55.818Z,27.83
2022-08-07T08:55:55.556Z,27.77
2022-08-07T08:58:39.046Z,28.04
2022-08-07T09:01:18.664Z,28.26
2022-08-07T09:04:07.224Z,28.70
2022-08-07T09:07:05.438Z,28.90
2022-08-07T09:10:07.379Z,29.22
2022-08-07T09:12:53.444Z,29.31
2022-08-07T09:16:24.533Z,29.39
2022-08-07T09:18:41.045Z,29.50
2022-08-07T09:21:33.766Z,29.63
2022-08-07T09:24:30.860Z,29.96
2022-08-07T09:27:22.574Z,30.15
2022-08-07T09:30:08.274Z,30.02
2022-08-07T09:32:47.890Z,29.96
2022-08-07T09:36:04.710Z,30.37
2022-08-07T09:38:58.958Z,30.23
2022-08-07T09:42:12.837Z,30.22
2022-08-07T09:47:37.203Z,30.27
2022-08-07T09:48:08.823Z,30.14
2022-08-07T09:50:53.890Z,30.04
2022-08-07T09:53:22.869Z,29.98
2022-08-07T09:56:37.201Z,29.93
2022-08-07T09:59:46.441Z,29.69
2022-08-07T10:03:08.097Z,29.42
2022-08-07T10:06:00.895Z,29.13
2022-08-07T10:08:32.434Z,29.19
2022-08-07T10:11:17.255Z,29.32
2022-08-07T10:14:47.437Z,29.37
2022-08-07T10:18:09.448Z,29.33
2022-08-07T10:20:41.825Z,29.28
2022-08-07T10:24:05.694Z,29.35
2022-08-07T10:26:53.118Z,29.40
2022-08-07T10:29:51.446Z,29.27
2022-08-07T10:32:53.286Z,29.37
2022-08-07T10:35:55.527Z,29.52
2022-08-07T10:38:49.942Z,29.66
2022-08-07T10:41:51.349Z,29.61
2022-08-07T10:44:39.151Z,29.63
2022-08-07T10:47:27.010Z,29.64
2022-08-07T10:50:25.683Z,29.83
2022-08-07T10:52:58.964Z,30.01
2022-08-07T10:55:53.293Z,30.09
2022-08-07T10:58:49.646Z,30.21
2022-08-07T11:01:35.198Z,30.25
2022-08-07T11:04:31.429Z,30.37
2022-08-07T11:07:15.058Z,30.34
2022-08-07T11:10:06.976Z,30.26
2022-08-07T11:12:44.996Z,30.37
2022-08-07T11:15:26.366Z,30.45
2022-08-07T11:18:12.508Z,30.29
2022-08-07T11:20:42.998Z,30.27
2022-08-07T11:23:39.230Z,30.35
2022-08-07T11:26:43.462Z,30.50
2022-08-07T11:29:43.596Z,30.42
2022-08-07T11:32:25.292Z,30.28
2022-08-07T11:35:27.597Z,30.13
2022-08-07T11:38:12.889Z,29.94
2022-08-07T11:41:10.713Z,29.78
2022-08-07T11:44:11.932Z,29.87
2022-08-07T11:46:48.673Z,29.99
2022-08-07T11:50:18.820Z,29.96
2022-08-07T11:52:28.996Z,29.79
2022-08-07T11:56:09.594Z,29.59
2022-08-07T11:58:39.946Z,29.50
2022-08-07T12:02:00.791Z,29.50
2022-08-07T12:04:34.218Z,29.42
2022-08-07T12:07:10.140Z,29.32
2022-08-07T12:09:59.394Z,29.09
2022-08-07T12:12:40.939Z,29.03
2022-08-07T12:15:17.430Z,28.85
2022-08-07T12:18:22.119Z,28.79
2022-08-07T12:22:36.543Z,28.75
2022-08-07T12:24:40.297Z,28.66
2022-08-07T12:27:16.687Z,28.67
2022-08-07T12:30:05.158Z,28.66
2022-08-07T12:32:41.619Z,28.59
2022-08-07T12:35:13.190Z,28.38
2022-08-07T12:38:11.205Z,28.30
2022-08-07T12:40:50.561Z,28.21
2022-08-07T12:44:02.284Z,28.08
2022-08-07T12:46:32.825Z,28.01
2022-08-07T12:49:25.367Z,27.89
2022-08-07T12:52:13.680Z,27.74
2022-08-07T12:55:05.377Z,27.73
2022-08-07T12:58:00.426Z,27.69
2022-08-07T13:01:05.175Z,27.59
2022-08-07T13:04:06.107Z,27.67
2022-08-07T13:07:00.901Z,27.68
2022-08-07T13:10:21.531Z,27.71
2022-08-07T13:12:37.144Z,27.69
2022-08-07T13:15:23.672Z,27.47
2022-08-07T13:18:01.914Z,27.25
2022-08-07T13:20:31.933Z,27.16
2022-08-07T13:24:00.788Z,27.05
2022-08-07T13:26:18.410Z,26.89
2022-08-07T13:29:01.421Z,26.86
2022-08-07T13:31:46.029Z,26.84
2022-08-07T13:34:50.809Z,26.88
2022-08-07T13:38:12.306Z,26.90
2022-08-07T13:40:52.596Z,26.80
2022-08-07T13:43:22.510Z,26.71
2022-08-07T13:46:16.407Z,26.73
2022-08-07T13:48:58.298Z,26.67
2022-08-07T13:52:04.756Z,26.65
2022-08-07T13:54:23.566Z,26.61
2022-08-07T13:56:59.811Z,26.55
2022-08-07T13:59:34.502Z,26.45
2022-08-07T14:02:12.859Z,26.49
2022-08-07T14:04:54.741Z,26.40
2022-08-07T14:07:27.395Z,26.35
2022-08-07T14:10:01.491Z,26.38
2022-08-07T14:12:55.592Z,26.25
2022-08-07T14:15:51.157Z,26.17
2022-08-07T14:18:29.610Z,25.94
2022-08-07T14:21:08.228Z,25.85
2022-08-07T14:23:59.957Z,25.84
2022-08-07T14:26:55.311Z,25.78
2022-08-07T14:30:08.228Z,25.63
2022-08-07T14:32:26.237Z,25.65
2022-08-07T14:34:54.993Z,25.63
2022-08-07T14:37:36.319Z,25.60
2022-08-07T14:40:17.991Z,25.55
2022-08-07T14:45:56.339Z,25.46
2022-08-07T14:48:30.274Z,25.48
2022-08-07T14:51:06.722Z,25.39
2022-08-07T14:54:05.423Z,25.37
2022-08-07T14:56:33.279Z,25.36
2022-08-07T14:59:14.138Z,25.36
2022-08-07T15:02:32.119Z,25.22
2022-08-07T15:07:52.244Z,25.12
2022-08-07T15:13:19.693Z,25.00
2022-08-07T15:15:52.554Z,24.94
2022-08-07T15:18:34.855Z,24.95
2022-08-07T15:21:07.991Z,24.96
2022-08-07T15:25:02.602Z,25.00
2022-08-07T15:26:38.118Z,25.04
2022-08-07T15:30:06.373Z,25.01
2022-08-07T15:32:02.894Z,24.93
2022-08-07T15:34:37.565Z,24.91
2022-08-07T15:37:27.830Z,24.89
2022-08-07T15:39:58.349Z,24.88
2022-08-07T15:42:43.905Z,24.92
2022-08-07T15:45:19.312Z,24.91
2022-08-07T15:48:00.950Z,24.97
2022-08-07T15:51:01.261Z,25.02
2022-08-07T15:53:42.190Z,25.08
2022-08-07T15:56:17.175Z,25.12
2022-08-07T15:58:43.792Z,25.14
2022-08-07T16:01:38.483Z,25.17
2022-08-07T16:04:15.075Z,25.19
2022-08-07T16:06:43.887Z,25.20
2022-08-07T16:09:22.644Z,25.18
2022-08-07T16:12:25.063Z,25.18
2022-08-07T16:15:05.613Z,25.14
2022-08-07T16:18:09.097Z,25.03
2022-08-07T16:21:53.453Z,25.00
2022-08-07T16:23:58.329Z,25.02
2022-08-07T16:26:30.906Z,25.06
2022-08-07T16:30:10.920Z,25.06
2022-08-07T16:32:25.520Z,25.06
2022-08-07T16:35:51.971Z,25.05
2022-08-07T16:38:44.380Z,25.06
2022-08-07T16:41:14.256Z,25.11
2022-08-07T16:44:40.231Z,25.12
2022-08-07T16:47:51.113Z,25.14
2022-08-07T16:50:36.261Z,25.19
2022-08-07T16:54:02.639Z,25.24
2022-08-07T16:56:19.120Z,25.28
2022-08-07T16:59:11.364Z,25.30
2022-08-07T17:02:48.709Z,25.25
2022-08-07T17:06:01.719Z,25.20
2022-08-07T17:08:05.726Z,25.23
2022-08-07T17:10:54.851Z,25.24
2022-08-07T17:14:17.433Z,25.25
2022-08-07T17:16:44.194Z,25.24
2022-08-07T17:20:01.979Z,25.21
2022-08-07T17:22:30.139Z,25.18
2022-08-07T17:25:08.157Z,25.15
2022-08-07T17:28:19.530Z,25.09
2022-08-07T17:30:58.485Z,25.02
2022-08-07T17:34:10.123Z,25.02
2022-08-07T17:36:26.472Z,24.97
2022-08-07T17:39:17.180Z,24.93
2022-08-07T17:42:01.628Z,24.89
2022-08-07T17:45:17.589Z,24.87
2022-08-07T17:48:01.441Z,24.80
2022-08-07T17:50:56.938Z,24.74
2022-08-07T17:54:01.956Z,24.69
2022-08-07T17:56:32.512Z,24.63
2022-08-07T17:59:09.061Z,24.57
2022-08-07T18:01:38.969Z,24.52
2022-08-07T18:04:31.005Z,24.45
2022-08-07T18:07:34.338Z,24.37
2022-08-07T18:10:32.671Z,24.33
2022-08-07T18:13:00.684Z,24.27
2022-08-07T18:15:53.447Z,24.20
2022-08-07T18:19:02.397Z,24.11
2022-08-07T18:21:51.670Z,23.99
2022-08-07T18:24:37.048Z,23.94
2022-08-07T18:27:23.565Z,23.91
2022-08-07T18:30:31.764Z,23.86
2022-08-07T18:33:15.353Z,23.81
2022-08-07T18:36:06.067Z,23.76
2022-08-07T18:38:58.566Z,23.67
2022-08-07T18:41:45.790Z,23.61
2022-08-07T18:44:22.221Z,23.61
2022-08-07T18:47:11.289Z,23.62
2022-08-07T18:50:40.742Z,23.58
2022-08-07T18:53:12.657Z,23.56
2022-08-07T18:55:57.199Z,23.55
2022-08-07T18:58:51.218Z,23.51
2022-08-07T19:02:31.922Z,23.41
2022-08-07T19:04:54.686Z,23.37
2022-08-07T19:07:51.929Z,23.33
2022-08-07T19:10:51.554Z,23.30
2022-08-07T19:13:21.660Z,23.26
2022-08-07T19:17:04.320Z,23.23
2022-08-07T19:19:53.288Z,23.24
2022-08-07T19:22:33.637Z,23.17
2022-08-07T19:25:06.897Z,23.16
2022-08-07T19:28:58.223Z,23.18
2022-08-07T19:31:00.694Z,23.19
2022-08-07T19:33:34.953Z,23.23
2022-08-07T19:36:05.131Z,23.22
2022-08-07T19:38:52.588Z,23.17
2022-08-07T19:41:39.316Z,23.14
2022-08-07T19:44:22.010Z,23.10
2022-08-07T19:46:57.868Z,23.14
2022-08-07T19:49:57.396Z,23.18
2022-08-07T19:52:19.188Z,23.18
2022-08-07T19:54:56.337Z,23.15
2022-08-07T19:58:04.683Z,23.10
2022-08-07T20:00:29.458Z,23.07
2022-08-07T20:03:02.706Z,23.04
2022-08-07T20:05:47.504Z,22.98
2022-08-07T20:08:24.001Z,22.96
2022-08-07T20:11:02.161Z,22.97
2022-08-07T20:13:37.826Z,22.96
2022-08-07T20:16:15.808Z,22.93
2022-08-07T20:19:04.536Z,22.85
2022-08-07T20:21:41.783Z,22.80
2022-08-07T20:24:28.851Z,22.79
2022-08-07T20:27:01.882Z,22.81
2022-08-07T20:29:49.402Z,22.79
2022-08-07T20:32:27.485Z,22.74
2022-08-07T20:35:26.469Z,22.70
2022-08-07T20:37:59.059Z,22.65
2022-08-07T20:40:34.621Z,22.64
2022-08-07T20:43:14.494Z,22.61
2022-08-07T20:46:25.746Z,22.60
2022-08-07T20:48:39.592Z,22.61
2022-08-07T20:51:28.086Z,22.60
2022-08-07T20:54:09.276Z,22.58
2022-08-07T20:56:41.920Z,22.54
2022-08-07T21:00:04.926Z,22.54
2022-08-07T21:02:32.305Z,22.54
2022-08-07T21:05:01.485Z,22.54
2022-08-07T21:07:33.445Z,22.55
2022-08-07T21:10:03.777Z,22.57
2022-08-07T21:12:34.332Z,22.58
2022-08-07T21:15:06.769Z,22.56
2022-08-07T21:18:02.033Z,22.55
2022-08-07T21:20:30.161Z,22.51
2022-08-07T21:23:15.402Z,22.44
2022-08-07T21:26:26.861Z,22.41
2022-08-07T21:29:05.766Z,22.34
2022-08-07T21:32:46.823Z,22.33
2022-08-07T21:35:05.864Z,22.31
2022-08-07T21:37:58.064Z,22.27
2022-08-07T21:40:53.307Z,22.24
2022-08-07T21:43:36.512Z,22.23
2022-08-07T21:46:41.634Z,22.20
2022-08-07T21:49:26.801Z,22.20
2022-08-07T21:52:09.075Z,22.19
2022-08-07T21:55:10.283Z,22.15
2022-08-07T21:57:52.318Z,22.12
2022-08-07T22:00:24.868Z,22.09
2022-08-07T22:02:54.916Z,22.10
2022-08-07T22:05:45.807Z,22.10
2022-08-07T22:08:18.823Z,22.06
2022-08-07T22:10:54.830Z,22.03
2022-08-07T22:13:50.332Z,22.02
2022-08-07T22:16:43.410Z,22.02
2022-08-07T22:19:23.873Z,22.02
2022-08-07T22:22:17.762Z,22.04
2022-08-07T22:25:10.714Z,22.04
2022-08-07T22:28:29.634Z,22.00
2022-08-07T22:30:40.108Z,21.88
2022-08-07T22:33:12.453Z,21.79
2022-08-07T22:35:58.172Z,21.76
2022-08-07T22:38:37.431Z,21.69
2022-08-07T22:41:19.954Z,21.67
2022-08-07T22:43:56.126Z,21.61
2022-08-07T22:47:02.808Z,21.59
2022-08-07T22:49:18.872Z,21.59
2022-08-07T22:51:55.153Z,21.63
2022-08-07T22:54:48.906Z,21.63
2022-08-07T22:57:44.327Z,21.60
2022-08-07T23:00:12.520Z,21.53
2022-08-07T23:03:09.142Z,21.45
2022-08-07T23:06:07.757Z,21.42
2022-08-07T23:10:00.760Z,21.44
2022-08-07T23:12:05.798Z,21.45
2022-08-07T23:14:47.563Z,21.45
2022-08-07T23:17:29.664Z,21.47
2022-08-07T23:20:51.605Z,21.43
2022-08-07T23:24:06.589Z,21.34
2022-08-07T23:27:06.043Z,21.23
2022-08-07T23:30:39.683Z,21.20
2022-08-07T23:34:21.611Z,21.19
2022-08-07T23:36:30.094Z,21.23
2022-08-07T23:39:08.558Z,21.23
2022-08-07T23:41:47.711Z,21.22
2022-08-07T23:44:45.222Z,21.21
2022-08-07T23:47:30.272Z,21.22
2022-08-07T23:50:40.404Z,21.18
2022-08-07T23:53:19.600Z,21.13
2022-08-07T23:56:03.615Z,21.10
2022-08-07T23:58:43.906Z,21.08
